sensor_id;sensor_type;location;lat;lon;timestamp;P1;durP1;ratioP1;P2;durP2;ratioP2
45962;SDS011;31669;49.892;20.818;2023-02-15T00:01:35;13.18;;;7.43;;
45962;SDS011;31669;49.892;20.818;2023-02-15T00:06:36;12.18;;;7.05;;
45962;SDS011;31669;49.892;20.818;2023-02-15T00:11:36;12.50;;;6.30;;
45962;SDS011;31669;49.892;20.818;2023-02-15T00:16:41;18.33;;;9.35;;
45962;SDS011;31669;49.892;20.818;2023-02-15T00:21:42;20.00;;;9.93;;
45962;SDS011;31669;49.892;20.818;2023-02-15T00:26:43;16.20;;;8.40;;
45962;SDS011;31669;49.892;20.818;2023-02-15T00:31:44;14.10;;;6.72;;
45962;SDS011;31669;49.892;20.818;2023-02-15T00:36:45;16.17;;;7.77;;
45962;SDS011;31669;49.892;20.818;2023-02-15T00:41:46;18.08;;;8.85;;
45962;SDS011;31669;49.892;20.818;2023-02-15T00:46:47;16.58;;;9.48;;
45962;SDS011;31669;49.892;20.818;2023-02-15T00:51:48;16.17;;;8.13;;
45962;SDS011;31669;49.892;20.818;2023-02-15T00:56:48;13.53;;;7.57;;
45962;SDS011;31669;49.892;20.818;2023-02-15T01:01:49;14.73;;;7.07;;
45962;SDS011;31669;49.892;20.818;2023-02-15T01:06:50;12.83;;;7.23;;
45962;SDS011;31669;49.892;20.818;2023-02-15T01:11:50;15.37;;;8.27;;
45962;SDS011;31669;49.892;20.818;2023-02-15T01:16:51;14.13;;;6.93;;
45962;SDS011;31669;49.892;20.818;2023-02-15T01:21:52;16.30;;;7.97;;
45962;SDS011;31669;49.892;20.818;2023-02-15T01:26:53;12.43;;;7.30;;
45962;SDS011;31669;49.892;20.818;2023-02-15T01:31:53;11.87;;;6.07;;
45962;SDS011;31669;49.892;20.818;2023-02-15T01:36:54;15.30;;;8.73;;
45962;SDS011;31669;49.892;20.818;2023-02-15T01:41:55;13.80;;;6.87;;
45962;SDS011;31669;49.892;20.818;2023-02-15T01:46:56;13.20;;;6.17;;
45962;SDS011;31669;49.892;20.818;2023-02-15T01:51:56;11.17;;;6.90;;
45962;SDS011;31669;49.892;20.818;2023-02-15T01:57:01;10.50;;;6.27;;
45962;SDS011;31669;49.892;20.818;2023-02-15T02:02:03;11.48;;;6.95;;
45962;SDS011;31669;49.892;20.818;2023-02-15T02:07:06;16.55;;;8.82;;
45962;SDS011;31669;49.892;20.818;2023-02-15T02:12:07;13.40;;;7.63;;
45962;SDS011;31669;49.892;20.818;2023-02-15T02:37:59;11.30;;;7.35;;
45962;SDS011;31669;49.892;20.818;2023-02-15T02:43:05;17.95;;;8.10;;
45962;SDS011;31669;49.892;20.818;2023-02-15T02:48:09;14.32;;;6.20;;
45962;SDS011;31669;49.892;20.818;2023-02-15T02:53:12;13.38;;;7.07;;
45962;SDS011;31669;49.892;20.818;2023-02-15T02:58:24;15.67;;;6.70;;
45962;SDS011;31669;49.892;20.818;2023-02-15T03:03:28;8.02;;;5.50;;
45962;SDS011;31669;49.892;20.818;2023-02-15T03:08:32;23.17;;;6.57;;
45962;SDS011;31669;49.892;20.818;2023-02-15T03:13:36;13.45;;;6.90;;
45962;SDS011;31669;49.892;20.818;2023-02-15T03:18:46;11.23;;;7.00;;
45962;SDS011;31669;49.892;20.818;2023-02-15T03:24:00;13.52;;;6.93;;
45962;SDS011;31669;49.892;20.818;2023-02-15T03:29:02;10.70;;;7.45;;
45962;SDS011;31669;49.892;20.818;2023-02-15T03:34:05;12.55;;;7.25;;
45962;SDS011;31669;49.892;20.818;2023-02-15T03:39:12;9.00;;;6.18;;
45962;SDS011;31669;49.892;20.818;2023-02-15T03:44:23;12.68;;;7.35;;
45962;SDS011;31669;49.892;20.818;2023-02-15T03:49:37;11.00;;;6.60;;
45962;SDS011;31669;49.892;20.818;2023-02-15T03:54:39;16.75;;;7.97;;
45962;SDS011;31669;49.892;20.818;2023-02-15T03:59:43;11.95;;;7.43;;
45962;SDS011;31669;49.892;20.818;2023-02-15T04:05:03;15.65;;;7.28;;
45962;SDS011;31669;49.892;20.818;2023-02-15T04:10:04;14.53;;;6.83;;
45962;SDS011;31669;49.892;20.818;2023-02-15T04:15:23;11.77;;;7.15;;
45962;SDS011;31669;49.892;20.818;2023-02-15T04:20:43;11.02;;;6.95;;
45962;SDS011;31669;49.892;20.818;2023-02-15T04:26:04;17.10;;;7.68;;
45962;SDS011;31669;49.892;20.818;2023-02-15T04:31:05;11.20;;;7.72;;
45962;SDS011;31669;49.892;20.818;2023-02-15T04:36:05;14.60;;;7.55;;
45962;SDS011;31669;49.892;20.818;2023-02-15T04:41:06;11.20;;;7.20;;
45962;SDS011;31669;49.892;20.818;2023-02-15T04:46:07;14.80;;;7.90;;
45962;SDS011;31669;49.892;20.818;2023-02-15T04:51:08;13.30;;;7.53;;
45962;SDS011;31669;49.892;20.818;2023-02-15T04:56:09;10.15;;;6.40;;
45962;SDS011;31669;49.892;20.818;2023-02-15T05:01:10;12.27;;;7.10;;
45962;SDS011;31669;49.892;20.818;2023-02-15T05:06:11;13.10;;;6.37;;
45962;SDS011;31669;49.892;20.818;2023-02-15T05:11:12;9.93;;;6.90;;
45962;SDS011;31669;49.892;20.818;2023-02-15T05:16:12;9.30;;;6.17;;
45962;SDS011;31669;49.892;20.818;2023-02-15T05:21:13;12.55;;;6.10;;
45962;SDS011;31669;49.892;20.818;2023-02-15T05:26:20;12.90;;;7.03;;
45962;SDS011;31669;49.892;20.818;2023-02-15T05:31:40;13.60;;;7.85;;
45962;SDS011;31669;49.892;20.818;2023-02-15T05:36:41;15.53;;;7.70;;
45962;SDS011;31669;49.892;20.818;2023-02-15T05:41:41;14.57;;;8.03;;
45962;SDS011;31669;49.892;20.818;2023-02-15T05:46:42;15.30;;;8.13;;
45962;SDS011;31669;49.892;20.818;2023-02-15T05:51:43;14.23;;;7.93;;
45962;SDS011;31669;49.892;20.818;2023-02-15T05:56:43;12.63;;;7.50;;
45962;SDS011;31669;49.892;20.818;2023-02-15T06:01:44;15.57;;;6.90;;
45962;SDS011;31669;49.892;20.818;2023-02-15T06:06:45;16.40;;;9.40;;
45962;SDS011;31669;49.892;20.818;2023-02-15T06:11:46;11.97;;;7.60;;
45962;SDS011;31669;49.892;20.818;2023-02-15T06:16:46;12.47;;;7.73;;
45962;SDS011;31669;49.892;20.818;2023-02-15T06:21:47;15.53;;;8.80;;
45962;SDS011;31669;49.892;20.818;2023-02-15T06:26:48;11.30;;;5.45;;
45962;SDS011;31669;49.892;20.818;2023-02-15T06:31:49;14.07;;;7.80;;
45962;SDS011;31669;49.892;20.818;2023-02-15T06:36:49;16.43;;;8.27;;
45962;SDS011;31669;49.892;20.818;2023-02-15T06:41:50;13.60;;;6.50;;
45962;SDS011;31669;49.892;20.818;2023-02-15T06:46:51;14.35;;;8.20;;
45962;SDS011;31669;49.892;20.818;2023-02-15T06:51:52;13.07;;;7.43;;
45962;SDS011;31669;49.892;20.818;2023-02-15T06:56:52;14.47;;;6.57;;
45962;SDS011;31669;49.892;20.818;2023-02-15T07:01:53;12.73;;;7.27;;
45962;SDS011;31669;49.892;20.818;2023-02-15T07:06:54;14.40;;;7.57;;
45962;SDS011;31669;49.892;20.818;2023-02-15T07:11:54;14.95;;;7.55;;
45962;SDS011;31669;49.892;20.818;2023-02-15T07:17:14;16.42;;;8.27;;
45962;SDS011;31669;49.892;20.818;2023-02-15T07:22:15;17.97;;;8.37;;
45962;SDS011;31669;49.892;20.818;2023-02-15T07:27:15;11.40;;;7.70;;
45962;SDS011;31669;49.892;20.818;2023-02-15T07:32:16;14.00;;;7.20;;
45962;SDS011;31669;49.892;20.818;2023-02-15T07:37:17;14.00;;;7.03;;
45962;SDS011;31669;49.892;20.818;2023-02-15T07:42:17;11.47;;;6.47;;
45962;SDS011;31669;49.892;20.818;2023-02-15T07:47:20;15.55;;;7.75;;
45962;SDS011;31669;49.892;20.818;2023-02-15T07:52:20;14.40;;;7.37;;
45962;SDS011;31669;49.892;20.818;2023-02-15T07:57:21;15.50;;;9.20;;
45962;SDS011;31669;49.892;20.818;2023-02-15T08:02:22;14.70;;;8.13;;
45962;SDS011;31669;49.892;20.818;2023-02-15T08:07:23;16.87;;;8.50;;
45962;SDS011;31669;49.892;20.818;2023-02-15T08:12:23;15.03;;;8.83;;
45962;SDS011;31669;49.892;20.818;2023-02-15T08:17:26;17.52;;;9.23;;
45962;SDS011;31669;49.892;20.818;2023-02-15T08:22:26;14.30;;;8.97;;
45962;SDS011;31669;49.892;20.818;2023-02-15T08:27:27;15.73;;;9.20;;
45962;SDS011;31669;49.892;20.818;2023-02-15T08:32:28;12.17;;;6.83;;
45962;SDS011;31669;49.892;20.818;2023-02-15T08:37:28;15.60;;;8.87;;
45962;SDS011;31669;49.892;20.818;2023-02-15T08:42:29;19.00;;;10.23;;
45962;SDS011;31669;49.892;20.818;2023-02-15T08:47:30;16.85;;;8.00;;
45962;SDS011;31669;49.892;20.818;2023-02-15T08:52:31;15.43;;;8.50;;
45962;SDS011;31669;49.892;20.818;2023-02-15T08:57:32;17.67;;;9.20;;
45962;SDS011;31669;49.892;20.818;2023-02-15T09:02:33;15.45;;;7.40;;
45962;SDS011;31669;49.892;20.818;2023-02-15T09:07:33;12.93;;;7.40;;
45962;SDS011;31669;49.892;20.818;2023-02-15T09:12:34;11.87;;;7.27;;
45962;SDS011;31669;49.892;20.818;2023-02-15T09:17:35;17.50;;;9.03;;
45962;SDS011;31669;49.892;20.818;2023-02-15T09:22:36;17.23;;;7.40;;
45962;SDS011;31669;49.892;20.818;2023-02-15T09:27:36;10.43;;;5.53;;
45962;SDS011;31669;49.892;20.818;2023-02-15T09:32:37;12.23;;;7.63;;
45962;SDS011;31669;49.892;20.818;2023-02-15T09:37:38;11.07;;;7.22;;
45962;SDS011;31669;49.892;20.818;2023-02-15T09:43:42;10.97;;;4.50;;
45962;SDS011;31669;49.892;20.818;2023-02-15T10:03:25;16.90;;;8.60;;
45962;SDS011;31669;49.892;20.818;2023-02-15T10:13:44;14.13;;;8.00;;
45962;SDS011;31669;49.892;20.818;2023-02-15T10:24:17;7.78;;;3.40;;
45962;SDS011;31669;49.892;20.818;2023-02-15T10:34:38;15.52;;;8.85;;
45962;SDS011;31669;49.892;20.818;2023-02-15T10:50:22;9.73;;;4.35;;
45962;SDS011;31669;49.892;20.818;2023-02-15T11:10:58;18.20;;;8.25;;
45962;SDS011;31669;49.892;20.818;2023-02-15T11:16:02;9.45;;;5.07;;
45962;SDS011;31669;49.892;20.818;2023-02-15T11:31:19;19.50;;;9.73;;
45962;SDS011;31669;49.892;20.818;2023-02-15T11:36:22;9.02;;;5.93;;
45962;SDS011;31669;49.892;20.818;2023-02-15T11:41:27;13.70;;;5.15;;
45962;SDS011;31669;49.892;20.818;2023-02-15T11:46:28;15.50;;;7.55;;
45962;SDS011;31669;49.892;20.818;2023-02-15T11:51:29;8.17;;;3.97;;
45962;SDS011;31669;49.892;20.818;2023-02-15T11:56:30;18.63;;;7.40;;
45962;SDS011;31669;49.892;20.818;2023-02-15T12:01:35;8.85;;;4.13;;
45962;SDS011;31669;49.892;20.818;2023-02-15T12:06:41;13.80;;;6.18;;
45962;SDS011;31669;49.892;20.818;2023-02-15T12:11:44;18.45;;;9.35;;
45962;SDS011;31669;49.892;20.818;2023-02-15T12:16:49;24.92;;;11.45;;
45962;SDS011;31669;49.892;20.818;2023-02-15T12:21:51;9.75;;;4.53;;
45962;SDS011;31669;49.892;20.818;2023-02-15T12:27:03;16.73;;;8.20;;
45962;SDS011;31669;49.892;20.818;2023-02-15T12:32:04;20.27;;;10.65;;
45962;SDS011;31669;49.892;20.818;2023-02-15T12:42:16;13.30;;;7.05;;
45962;SDS011;31669;49.892;20.818;2023-02-15T12:47:18;19.30;;;8.88;;
45962;SDS011;31669;49.892;20.818;2023-02-15T12:57:24;22.38;;;10.43;;
45962;SDS011;31669;49.892;20.818;2023-02-15T13:02:27;9.80;;;4.43;;
45962;SDS011;31669;49.892;20.818;2023-02-15T13:07:30;14.25;;;8.00;;
45962;SDS011;31669;49.892;20.818;2023-02-15T13:12:31;13.02;;;5.22;;
45962;SDS011;31669;49.892;20.818;2023-02-15T13:17:32;9.50;;;5.03;;
45962;SDS011;31669;49.892;20.818;2023-02-15T13:22:37;13.52;;;5.97;;
45962;SDS011;31669;49.892;20.818;2023-02-15T13:27:42;14.32;;;6.68;;
45962;SDS011;31669;49.892;20.818;2023-02-15T13:32:44;16.98;;;8.40;;
45962;SDS011;31669;49.892;20.818;2023-02-15T13:37:49;18.38;;;8.65;;
45962;SDS011;31669;49.892;20.818;2023-02-15T13:42:54;14.73;;;7.35;;
45962;SDS011;31669;49.892;20.818;2023-02-15T14:13:51;15.38;;;7.60;;
45962;SDS011;31669;49.892;20.818;2023-02-15T14:18:59;14.13;;;7.60;;
45962;SDS011;31669;49.892;20.818;2023-02-15T14:34:22;19.55;;;9.02;;
45962;SDS011;31669;49.892;20.818;2023-02-15T14:45:22;18.25;;;8.52;;
45962;SDS011;31669;49.892;20.818;2023-02-15T14:55:36;21.13;;;9.15;;
45962;SDS011;31669;49.892;20.818;2023-02-15T15:00:37;18.08;;;8.00;;
45962;SDS011;31669;49.892;20.818;2023-02-15T15:05:46;25.63;;;12.07;;
45962;SDS011;31669;49.892;20.818;2023-02-15T15:10:48;23.30;;;10.20;;
45962;SDS011;31669;49.892;20.818;2023-02-15T15:15:49;19.20;;;9.73;;
45962;SDS011;31669;49.892;20.818;2023-02-15T15:20:53;25.02;;;12.77;;
45962;SDS011;31669;49.892;20.818;2023-02-15T15:25:58;28.00;;;12.73;;
45962;SDS011;31669;49.892;20.818;2023-02-15T15:52:10;13.50;;;8.05;;
45962;SDS011;31669;49.892;20.818;2023-02-15T15:57:47;23.95;;;10.20;;
45962;SDS011;31669;49.892;20.818;2023-02-15T16:02:53;24.75;;;10.95;;
45962;SDS011;31669;49.892;20.818;2023-02-15T16:07:58;19.55;;;9.15;;
45962;SDS011;31669;49.892;20.818;2023-02-15T16:12:59;27.50;;;11.60;;
45962;SDS011;31669;49.892;20.818;2023-02-15T16:18:00;27.15;;;12.50;;
45962;SDS011;31669;49.892;20.818;2023-02-15T16:28:06;27.08;;;13.05;;
45962;SDS011;31669;49.892;20.818;2023-02-15T16:33:11;32.10;;;13.23;;
45962;SDS011;31669;49.892;20.818;2023-02-15T16:38:12;27.13;;;11.02;;
45962;SDS011;31669;49.892;20.818;2023-02-15T16:43:16;29.77;;;12.30;;
45962;SDS011;31669;49.892;20.818;2023-02-15T16:48:21;25.92;;;13.15;;
45962;SDS011;31669;49.892;20.818;2023-02-15T16:53:25;31.20;;;13.50;;
45962;SDS011;31669;49.892;20.818;2023-02-15T16:58:30;28.85;;;13.30;;
45962;SDS011;31669;49.892;20.818;2023-02-15T17:03:32;31.15;;;13.43;;
45962;SDS011;31669;49.892;20.818;2023-02-15T17:08:33;29.15;;;12.60;;
45962;SDS011;31669;49.892;20.818;2023-02-15T17:13:34;21.25;;;12.13;;
45962;SDS011;31669;49.892;20.818;2023-02-15T17:18:44;29.73;;;12.10;;
45962;SDS011;31669;49.892;20.818;2023-02-15T17:23:46;28.58;;;12.90;;
45962;SDS011;31669;49.892;20.818;2023-02-15T17:28:51;28.58;;;13.32;;
45962;SDS011;31669;49.892;20.818;2023-02-15T17:33:53;33.92;;;15.23;;
45962;SDS011;31669;49.892;20.818;2023-02-15T17:43:59;34.80;;;14.88;;
45962;SDS011;31669;49.892;20.818;2023-02-15T17:49:00;24.85;;;12.90;;
45962;SDS011;31669;49.892;20.818;2023-02-15T17:54:01;30.88;;;13.80;;
45962;SDS011;31669;49.892;20.818;2023-02-15T17:59:21;33.17;;;15.68;;
45962;SDS011;31669;49.892;20.818;2023-02-15T18:04:23;33.45;;;14.35;;
45962;SDS011;31669;49.892;20.818;2023-02-15T18:09:43;42.30;;;15.93;;
45962;SDS011;31669;49.892;20.818;2023-02-15T18:15:04;36.20;;;14.55;;
45962;SDS011;31669;49.892;20.818;2023-02-15T18:20:06;30.15;;;14.90;;
45962;SDS011;31669;49.892;20.818;2023-02-15T18:25:11;29.40;;;13.13;;
45962;SDS011;31669;49.892;20.818;2023-02-15T18:30:13;34.00;;;16.17;;
45962;SDS011;31669;49.892;20.818;2023-02-15T18:35:15;35.05;;;15.10;;
45962;SDS011;31669;49.892;20.818;2023-02-15T18:40:16;36.53;;;15.35;;
45962;SDS011;31669;49.892;20.818;2023-02-15T18:50:19;35.53;;;14.93;;
45962;SDS011;31669;49.892;20.818;2023-02-15T18:55:21;33.50;;;15.88;;
45962;SDS011;31669;49.892;20.818;2023-02-15T19:00:29;38.33;;;17.05;;
45962;SDS011;31669;49.892;20.818;2023-02-15T19:05:31;30.80;;;15.23;;
45962;SDS011;31669;49.892;20.818;2023-02-15T19:10:32;32.70;;;15.30;;
45962;SDS011;31669;49.892;20.818;2023-02-15T19:15:33;37.20;;;15.77;;
45962;SDS011;31669;49.892;20.818;2023-02-15T19:20:38;38.03;;;15.63;;
45962;SDS011;31669;49.892;20.818;2023-02-15T19:25:40;36.35;;;16.63;;
45962;SDS011;31669;49.892;20.818;2023-02-15T19:30:41;37.75;;;17.20;;
45962;SDS011;31669;49.892;20.818;2023-02-15T19:35:43;34.92;;;16.25;;
45962;SDS011;31669;49.892;20.818;2023-02-15T19:40:45;28.90;;;15.45;;
45962;SDS011;31669;49.892;20.818;2023-02-15T19:45:45;39.70;;;16.30;;
45962;SDS011;31669;49.892;20.818;2023-02-15T19:50:46;38.53;;;15.93;;
45962;SDS011;31669;49.892;20.818;2023-02-15T19:55:48;36.92;;;16.17;;
45962;SDS011;31669;49.892;20.818;2023-02-15T20:00:50;35.60;;;15.93;;
45962;SDS011;31669;49.892;20.818;2023-02-15T20:05:51;33.00;;;15.35;;
45962;SDS011;31669;49.892;20.818;2023-02-15T20:10:51;37.87;;;14.87;;
45962;SDS011;31669;49.892;20.818;2023-02-15T20:15:52;32.30;;;16.13;;
45962;SDS011;31669;49.892;20.818;2023-02-15T20:20:53;29.70;;;13.93;;
45962;SDS011;31669;49.892;20.818;2023-02-15T20:25:56;43.00;;;16.80;;
45962;SDS011;31669;49.892;20.818;2023-02-15T20:30:57;30.80;;;13.93;;
45962;SDS011;31669;49.892;20.818;2023-02-15T20:35:58;29.35;;;13.85;;
45962;SDS011;31669;49.892;20.818;2023-02-15T20:40:59;25.38;;;13.25;;
45962;SDS011;31669;49.892;20.818;2023-02-15T20:46:18;27.20;;;13.13;;
45962;SDS011;31669;49.892;20.818;2023-02-15T20:51:20;31.27;;;13.80;;
45962;SDS011;31669;49.892;20.818;2023-02-15T20:56:22;26.30;;;12.38;;
45962;SDS011;31669;49.892;20.818;2023-02-15T21:01:23;22.33;;;10.18;;
45962;SDS011;31669;49.892;20.818;2023-02-15T21:06:23;32.83;;;13.10;;
45962;SDS011;31669;49.892;20.818;2023-02-15T21:11:24;23.00;;;11.50;;
45962;SDS011;31669;49.892;20.818;2023-02-15T21:16:25;25.83;;;13.00;;
45962;SDS011;31669;49.892;20.818;2023-02-15T21:21:26;27.60;;;11.83;;
45962;SDS011;31669;49.892;20.818;2023-02-15T21:26:27;27.92;;;11.82;;
45962;SDS011;31669;49.892;20.818;2023-02-15T21:31:27;26.53;;;12.17;;
45962;SDS011;31669;49.892;20.818;2023-02-15T21:36:28;21.13;;;11.30;;
45962;SDS011;31669;49.892;20.818;2023-02-15T21:41:29;22.00;;;10.40;;
45962;SDS011;31669;49.892;20.818;2023-02-15T21:46:48;20.15;;;10.18;;
45962;SDS011;31669;49.892;20.818;2023-02-15T21:52:10;25.15;;;11.82;;
45962;SDS011;31669;49.892;20.818;2023-02-15T21:57:11;25.25;;;10.43;;
45962;SDS011;31669;49.892;20.818;2023-02-15T22:02:24;25.10;;;11.63;;
45962;SDS011;31669;49.892;20.818;2023-02-15T22:07:25;29.83;;;12.35;;
45962;SDS011;31669;49.892;20.818;2023-02-15T22:12:26;28.27;;;10.88;;
45962;SDS011;31669;49.892;20.818;2023-02-15T22:17:27;20.23;;;10.53;;
45962;SDS011;31669;49.892;20.818;2023-02-15T22:22:30;19.63;;;10.88;;
45962;SDS011;31669;49.892;20.818;2023-02-15T22:27:33;24.58;;;10.48;;
45962;SDS011;31669;49.892;20.818;2023-02-15T22:32:34;21.33;;;10.18;;
45962;SDS011;31669;49.892;20.818;2023-02-15T22:37:35;22.63;;;10.03;;
45962;SDS011;31669;49.892;20.818;2023-02-15T22:42:36;24.10;;;10.47;;
45962;SDS011;31669;49.892;20.818;2023-02-15T22:47:37;19.25;;;9.82;;
45962;SDS011;31669;49.892;20.818;2023-02-15T22:52:38;33.28;;;11.70;;
45962;SDS011;31669;49.892;20.818;2023-02-15T22:57:39;21.77;;;10.37;;
45962;SDS011;31669;49.892;20.818;2023-02-15T23:02:40;18.03;;;8.83;;
45962;SDS011;31669;49.892;20.818;2023-02-15T23:07:41;22.30;;;10.47;;
45962;SDS011;31669;49.892;20.818;2023-02-15T23:12:42;24.20;;;10.38;;
45962;SDS011;31669;49.892;20.818;2023-02-15T23:18:46;21.88;;;11.05;;
45962;SDS011;31669;49.892;20.818;2023-02-15T23:23:26;17.92;;;10.07;;
45962;SDS011;31669;49.892;20.818;2023-02-15T23:28:29;24.00;;;10.65;;
45962;SDS011;31669;49.892;20.818;2023-02-15T23:33:31;23.02;;;9.32;;
45962;SDS011;31669;49.892;20.818;2023-02-15T23:38:33;20.55;;;9.38;;
45962;SDS011;31669;49.892;20.818;2023-02-15T23:43:34;17.85;;;8.68;;
45962;SDS011;31669;49.892;20.818;2023-02-15T23:48:36;24.52;;;10.32;;
45962;SDS011;31669;49.892;20.818;2023-02-15T23:53:37;21.92;;;9.95;;
45962;SDS011;31669;49.892;20.818;2023-02-15T23:58:39;23.03;;;9.50;;
